This is the latest recevied weather packets stored in our database for station/object WX9WTF. If no packets are shown the sender has not sent any weather packets the latest 10 day(s).
| Time | Temp. | Humidity | Pressure | Rain* | Wind** | Luminosity | Snow |
|---|---|---|---|---|---|---|---|
| 1777426046 | 11.67° C | 87% | 1015.8 hPa | 0 mm | - | 0 W/m² | - |
| 1777425741 | 11.67° C | 86% | 1015.7 hPa | 0 mm | - | 0 W/m² | - |
| 1777425435 | 12.22° C | 84% | 1015.8 hPa | 0 mm | - | 1 W/m² | - |
| 1777425132 | 12.22° C | 83% | 1015.6 hPa | 0 mm | - | 2 W/m² | - |
| 1777424829 | 12.78° C | 83% | 1015.5 hPa | 0 mm | - | 4 W/m² | - |
| 1777424524 | 12.78° C | 81% | 1015.5 hPa | 0 mm | - | 6 W/m² | - |
| 1777424220 | 13.33° C | 80% | 1015.4 hPa | 0 mm | - | 10 W/m² | - |
| 1777423917 | 13.89° C | 78% | 1015.2 hPa | 0 mm | - | 15 W/m² | - |
| 1777423613 | 13.89° C | 77% | 1015.3 hPa | 0 mm | - | 19 W/m² | - |
| 1777423308 | 14.44° C | 77% | 1015.1 hPa | 0 mm | - | 23 W/m² | - |
| 1777423004 | 13.89° C | 77% | 1015 hPa | 0 mm | - | 32 W/m² | - |
| 1777422699 | 13.89° C | 78% | 1015 hPa | 0 mm | - | 35 W/m² | - |
| 1777422395 | 13.89° C | 78% | 1014.8 hPa | 0 mm | - | 35 W/m² | - |
| 1777422090 | 13.89° C | 77% | 1014.7 hPa | 0 mm | - | 39 W/m² | - |
| 1777421789 | 13.89° C | 76% | 1014.7 hPa | 0 mm | - | 48 W/m² | - |
| 1777421485 | 13.89° C | 76% | 1014.7 hPa | 0 mm | - | 53 W/m² | - |
| 1777421181 | 13.89° C | 76% | 1014.8 hPa | 0 mm | - | 62 W/m² | - |
| 1777420878 | 13.89° C | 76% | 1014.7 hPa | 0 mm | - | 83 W/m² | - |
| 1777420574 | 13.89° C | 76% | 1014.7 hPa | 0 mm | - | 79 W/m² | - |
| 1777420270 | 13.89° C | 77% | 1014.4 hPa | 0 mm | - | 78 W/m² | - |
| 1777419965 | 13.89° C | 77% | 1014.6 hPa | 0 mm | - | 79 W/m² | - |
| 1777419663 | 13.89° C | 77% | 1014.3 hPa | 0 mm | - | 89 W/m² | - |
| 1777419361 | 13.89° C | 77% | 1014.6 hPa | 0 mm | - | 57 W/m² | - |
| 1777419060 | 13.89° C | 77% | 1014.3 hPa | 0 mm | - | 105 W/m² | - |
| 1777418759 | 13.89° C | 76% | 1014.4 hPa | 0 mm | - | 114 W/m² | - |
* Rain latest hour (hover to see other rain measurements)
** Current wind speed in m/s (hover to see current wind gust speed)